sensor_id;sensor_type;location;lat;lon;timestamp;P1;durP1;ratioP1;P2;durP2;ratioP2
9254;SDS011;4663;49.120;9.730;2023-02-27T00:01:32;13.70;;;12.90;;
9254;SDS011;4663;49.120;9.730;2023-02-27T00:03:58;13.30;;;12.67;;
9254;SDS011;4663;49.120;9.730;2023-02-27T00:06:24;15.20;;;14.40;;
9254;SDS011;4663;49.120;9.730;2023-02-27T00:08:50;14.13;;;13.30;;
9254;SDS011;4663;49.120;9.730;2023-02-27T00:11:15;14.23;;;13.53;;
9254;SDS011;4663;49.120;9.730;2023-02-27T00:13:40;12.93;;;12.23;;
9254;SDS011;4663;49.120;9.730;2023-02-27T00:16:07;14.20;;;13.40;;
9254;SDS011;4663;49.120;9.730;2023-02-27T00:18:33;13.73;;;12.97;;
9254;SDS011;4663;49.120;9.730;2023-02-27T00:20:58;14.40;;;13.40;;
9254;SDS011;4663;49.120;9.730;2023-02-27T00:23:24;14.37;;;13.60;;
9254;SDS011;4663;49.120;9.730;2023-02-27T00:25:49;13.23;;;12.43;;
9254;SDS011;4663;49.120;9.730;2023-02-27T00:28:16;13.20;;;12.30;;
9254;SDS011;4663;49.120;9.730;2023-02-27T00:30:41;13.13;;;12.13;;
9254;SDS011;4663;49.120;9.730;2023-02-27T00:33:07;13.43;;;12.63;;
9254;SDS011;4663;49.120;9.730;2023-02-27T00:35:32;12.40;;;11.80;;
9254;SDS011;4663;49.120;9.730;2023-02-27T00:37:58;16.07;;;15.23;;
9254;SDS011;4663;49.120;9.730;2023-02-27T00:40:24;13.83;;;13.13;;
9254;SDS011;4663;49.120;9.730;2023-02-27T00:42:50;12.80;;;11.90;;
9254;SDS011;4663;49.120;9.730;2023-02-27T00:45:16;12.63;;;11.93;;
9254;SDS011;4663;49.120;9.730;2023-02-27T00:47:42;13.30;;;12.43;;
9254;SDS011;4663;49.120;9.730;2023-02-27T00:50:07;13.43;;;12.63;;
9254;SDS011;4663;49.120;9.730;2023-02-27T00:52:33;14.00;;;13.20;;
9254;SDS011;4663;49.120;9.730;2023-02-27T00:54:59;14.47;;;13.73;;
9254;SDS011;4663;49.120;9.730;2023-02-27T00:57:25;13.83;;;13.00;;
9254;SDS011;4663;49.120;9.730;2023-02-27T00:59:50;14.37;;;13.43;;
9254;SDS011;4663;49.120;9.730;2023-02-27T01:02:15;13.07;;;12.37;;
9254;SDS011;4663;49.120;9.730;2023-02-27T01:04:41;12.93;;;12.27;;
9254;SDS011;4663;49.120;9.730;2023-02-27T01:07:07;12.03;;;11.40;;
9254;SDS011;4663;49.120;9.730;2023-02-27T01:09:33;11.93;;;11.13;;
9254;SDS011;4663;49.120;9.730;2023-02-27T01:11:58;12.37;;;11.60;;
9254;SDS011;4663;49.120;9.730;2023-02-27T01:14:24;12.17;;;11.37;;
9254;SDS011;4663;49.120;9.730;2023-02-27T01:16:50;10.83;;;10.33;;
9254;SDS011;4663;49.120;9.730;2023-02-27T01:19:16;11.97;;;11.27;;
9254;SDS011;4663;49.120;9.730;2023-02-27T01:21:41;12.33;;;11.20;;
9254;SDS011;4663;49.120;9.730;2023-02-27T01:24:07;11.77;;;11.17;;
9254;SDS011;4663;49.120;9.730;2023-02-27T01:26:33;11.80;;;11.07;;
9254;SDS011;4663;49.120;9.730;2023-02-27T01:28:58;10.50;;;9.90;;
9254;SDS011;4663;49.120;9.730;2023-02-27T01:31:24;11.53;;;10.83;;
9254;SDS011;4663;49.120;9.730;2023-02-27T01:33:49;11.20;;;10.40;;
9254;SDS011;4663;49.120;9.730;2023-02-27T01:36:14;11.43;;;10.83;;
9254;SDS011;4663;49.120;9.730;2023-02-27T01:38:40;11.23;;;10.63;;
9254;SDS011;4663;49.120;9.730;2023-02-27T01:41:05;12.00;;;11.20;;
9254;SDS011;4663;49.120;9.730;2023-02-27T01:43:32;12.47;;;11.73;;
9254;SDS011;4663;49.120;9.730;2023-02-27T01:45:57;11.70;;;11.00;;
9254;SDS011;4663;49.120;9.730;2023-02-27T01:48:31;11.03;;;10.37;;
9254;SDS011;4663;49.120;9.730;2023-02-27T01:51:01;11.13;;;10.53;;
9254;SDS011;4663;49.120;9.730;2023-02-27T01:53:33;11.67;;;11.07;;
9254;SDS011;4663;49.120;9.730;2023-02-27T01:56:05;11.83;;;11.20;;
9254;SDS011;4663;49.120;9.730;2023-02-27T01:58:34;11.50;;;10.90;;
9254;SDS011;4663;49.120;9.730;2023-02-27T02:01:00;12.57;;;11.57;;
9254;SDS011;4663;49.120;9.730;2023-02-27T02:06:04;12.00;;;11.30;;
9254;SDS011;4663;49.120;9.730;2023-02-27T02:08:32;11.20;;;10.50;;
9254;SDS011;4663;49.120;9.730;2023-02-27T02:11:00;11.83;;;11.23;;
9254;SDS011;4663;49.120;9.730;2023-02-27T02:13:27;10.57;;;9.97;;
9254;SDS011;4663;49.120;9.730;2023-02-27T02:16:03;11.07;;;10.37;;
9254;SDS011;4663;49.120;9.730;2023-02-27T02:41:33;11.67;;;11.07;;
9254;SDS011;4663;49.120;9.730;2023-02-27T02:49:56;11.27;;;10.67;;
9254;SDS011;4663;49.120;9.730;2023-02-27T02:52:28;10.87;;;10.07;;
9254;SDS011;4663;49.120;9.730;2023-02-27T03:00:30;10.83;;;10.33;;
9254;SDS011;4663;49.120;9.730;2023-02-27T03:03:16;12.23;;;11.37;;
9254;SDS011;4663;49.120;9.730;2023-02-27T03:05:50;11.50;;;10.80;;
9254;SDS011;4663;49.120;9.730;2023-02-27T03:08:28;11.33;;;10.73;;
9254;SDS011;4663;49.120;9.730;2023-02-27T03:11:01;12.57;;;11.87;;
9254;SDS011;4663;49.120;9.730;2023-02-27T03:13:47;11.57;;;10.97;;
9254;SDS011;4663;49.120;9.730;2023-02-27T03:19:11;12.17;;;11.47;;
9254;SDS011;4663;49.120;9.730;2023-02-27T03:21:43;11.30;;;10.63;;
9254;SDS011;4663;49.120;9.730;2023-02-27T03:24:23;12.20;;;11.50;;
9254;SDS011;4663;49.120;9.730;2023-02-27T03:26:54;11.97;;;11.27;;
9254;SDS011;4663;49.120;9.730;2023-02-27T03:29:29;12.17;;;11.47;;
9254;SDS011;4663;49.120;9.730;2023-02-27T03:32:03;11.73;;;11.07;;
9254;SDS011;4663;49.120;9.730;2023-02-27T03:34:39;11.70;;;11.03;;
9254;SDS011;4663;49.120;9.730;2023-02-27T03:37:15;11.63;;;11.03;;
9254;SDS011;4663;49.120;9.730;2023-02-27T03:42:52;11.77;;;10.87;;
9254;SDS011;4663;49.120;9.730;2023-02-27T03:47:56;10.87;;;10.17;;
9254;SDS011;4663;49.120;9.730;2023-02-27T03:50:21;11.77;;;11.00;;
9254;SDS011;4663;49.120;9.730;2023-02-27T03:52:47;11.80;;;11.20;;
9254;SDS011;4663;49.120;9.730;2023-02-27T03:55:20;11.73;;;10.93;;
9254;SDS011;4663;49.120;9.730;2023-02-27T03:57:49;12.00;;;11.20;;
9254;SDS011;4663;49.120;9.730;2023-02-27T04:02:47;11.43;;;10.83;;
9254;SDS011;4663;49.120;9.730;2023-02-27T04:05:17;11.63;;;10.93;;
9254;SDS011;4663;49.120;9.730;2023-02-27T04:12:51;11.20;;;10.40;;
9254;SDS011;4663;49.120;9.730;2023-02-27T04:18:38;11.97;;;11.33;;
9254;SDS011;4663;49.120;9.730;2023-02-27T04:21:37;12.53;;;11.73;;
9254;SDS011;4663;49.120;9.730;2023-02-27T04:27:11;11.00;;;10.43;;
9254;SDS011;4663;49.120;9.730;2023-02-27T04:32:33;10.77;;;10.17;;
9254;SDS011;4663;49.120;9.730;2023-02-27T04:35:01;10.83;;;10.20;;
9254;SDS011;4663;49.120;9.730;2023-02-27T04:37:43;10.80;;;10.20;;
9254;SDS011;4663;49.120;9.730;2023-02-27T04:40:19;11.80;;;11.10;;
9254;SDS011;4663;49.120;9.730;2023-02-27T04:42:49;11.70;;;10.90;;
9254;SDS011;4663;49.120;9.730;2023-02-27T04:45:20;10.97;;;10.27;;
9254;SDS011;4663;49.120;9.730;2023-02-27T04:47:59;11.97;;;11.27;;
9254;SDS011;4663;49.120;9.730;2023-02-27T04:50:40;11.70;;;10.87;;
9254;SDS011;4663;49.120;9.730;2023-02-27T04:55:49;10.97;;;10.37;;
9254;SDS011;4663;49.120;9.730;2023-02-27T04:58:20;11.50;;;10.87;;
9254;SDS011;4663;49.120;9.730;2023-02-27T05:00:53;11.20;;;10.40;;
9254;SDS011;4663;49.120;9.730;2023-02-27T05:03:26;10.57;;;9.97;;
9254;SDS011;4663;49.120;9.730;2023-02-27T05:05:57;11.07;;;10.43;;
9254;SDS011;4663;49.120;9.730;2023-02-27T05:13:45;10.90;;;10.30;;
9254;SDS011;4663;49.120;9.730;2023-02-27T05:19:03;11.60;;;10.90;;
9254;SDS011;4663;49.120;9.730;2023-02-27T05:21:35;11.20;;;10.53;;
9254;SDS011;4663;49.120;9.730;2023-02-27T05:37:50;11.27;;;10.67;;
9254;SDS011;4663;49.120;9.730;2023-02-27T05:40:31;13.03;;;12.07;;
9254;SDS011;4663;49.120;9.730;2023-02-27T05:45:55;12.80;;;12.10;;
9254;SDS011;4663;49.120;9.730;2023-02-27T05:48:32;11.93;;;11.23;;
9254;SDS011;4663;49.120;9.730;2023-02-27T05:51:01;11.80;;;11.20;;
9254;SDS011;4663;49.120;9.730;2023-02-27T05:53:29;11.33;;;10.73;;
9254;SDS011;4663;49.120;9.730;2023-02-27T05:56:00;12.13;;;11.50;;
9254;SDS011;4663;49.120;9.730;2023-02-27T06:01:28;11.90;;;11.00;;
9254;SDS011;4663;49.120;9.730;2023-02-27T06:03:53;12.60;;;11.70;;
9254;SDS011;4663;49.120;9.730;2023-02-27T06:06:19;12.43;;;11.73;;
9254;SDS011;4663;49.120;9.730;2023-02-27T06:08:46;12.70;;;11.60;;
9254;SDS011;4663;49.120;9.730;2023-02-27T06:11:11;12.60;;;11.80;;
9254;SDS011;4663;49.120;9.730;2023-02-27T06:13:37;12.77;;;12.00;;
9254;SDS011;4663;49.120;9.730;2023-02-27T06:16:02;11.30;;;10.70;;
9254;SDS011;4663;49.120;9.730;2023-02-27T11:23:59;32.03;;;30.27;;
9254;SDS011;4663;49.120;9.730;2023-02-27T11:26:30;26.10;;;24.63;;
9254;SDS011;4663;49.120;9.730;2023-02-27T11:31:35;14.77;;;13.97;;
9254;SDS011;4663;49.120;9.730;2023-02-27T11:34:03;19.00;;;17.83;;
9254;SDS011;4663;49.120;9.730;2023-02-27T11:41:54;14.17;;;13.37;;
9254;SDS011;4663;49.120;9.730;2023-02-27T11:44:23;13.30;;;12.60;;
9254;SDS011;4663;49.120;9.730;2023-02-27T11:46:51;12.37;;;11.67;;
9254;SDS011;4663;49.120;9.730;2023-02-27T11:49:34;12.80;;;12.10;;
9254;SDS011;4663;49.120;9.730;2023-02-27T11:52:15;13.50;;;12.70;;
9254;SDS011;4663;49.120;9.730;2023-02-27T11:54:54;14.23;;;13.30;;
9254;SDS011;4663;49.120;9.730;2023-02-27T11:57:29;13.57;;;12.77;;
9254;SDS011;4663;49.120;9.730;2023-02-27T12:00:04;14.30;;;13.53;;
9254;SDS011;4663;49.120;9.730;2023-02-27T12:08:15;21.47;;;20.23;;
9254;SDS011;4663;49.120;9.730;2023-02-27T12:10:54;21.70;;;20.60;;
9254;SDS011;4663;49.120;9.730;2023-02-27T12:13:27;24.87;;;23.60;;
9254;SDS011;4663;49.120;9.730;2023-02-27T12:18:34;32.63;;;30.70;;
9254;SDS011;4663;49.120;9.730;2023-02-27T12:21:06;35.57;;;33.20;;
9254;SDS011;4663;49.120;9.730;2023-02-27T12:23:43;36.63;;;34.87;;
9254;SDS011;4663;49.120;9.730;2023-02-27T12:34:26;36.47;;;34.60;;
9254;SDS011;4663;49.120;9.730;2023-02-27T12:37:11;37.67;;;35.77;;
9254;SDS011;4663;49.120;9.730;2023-02-27T12:39:40;38.03;;;36.07;;
9254;SDS011;4663;49.120;9.730;2023-02-27T12:50:09;32.50;;;30.87;;
9254;SDS011;4663;49.120;9.730;2023-02-27T12:55:33;28.97;;;27.53;;
9254;SDS011;4663;49.120;9.730;2023-02-27T13:13:46;30.27;;;28.73;;
9254;SDS011;4663;49.120;9.730;2023-02-27T13:18:58;27.03;;;25.70;;
9254;SDS011;4663;49.120;9.730;2023-02-27T13:24:27;24.10;;;22.93;;
9254;SDS011;4663;49.120;9.730;2023-02-27T13:29:37;26.23;;;24.90;;
9254;SDS011;4663;49.120;9.730;2023-02-27T13:34:58;30.90;;;29.07;;
9254;SDS011;4663;49.120;9.730;2023-02-27T13:37:50;25.37;;;24.00;;
9254;SDS011;4663;49.120;9.730;2023-02-27T13:43:03;17.43;;;16.53;;
9254;SDS011;4663;49.120;9.730;2023-02-27T13:45:59;19.33;;;18.43;;
9254;SDS011;4663;49.120;9.730;2023-02-27T13:48:35;24.23;;;22.97;;
9254;SDS011;4663;49.120;9.730;2023-02-27T13:51:04;24.30;;;23.10;;
9254;SDS011;4663;49.120;9.730;2023-02-27T13:53:33;22.97;;;21.87;;
9254;SDS011;4663;49.120;9.730;2023-02-27T13:56:18;21.60;;;20.57;;
9254;SDS011;4663;49.120;9.730;2023-02-27T13:58:46;25.93;;;24.60;;
9254;SDS011;4663;49.120;9.730;2023-02-27T14:01:15;29.73;;;28.30;;
9254;SDS011;4663;49.120;9.730;2023-02-27T14:03:50;31.83;;;30.33;;
9254;SDS011;4663;49.120;9.730;2023-02-27T14:06:17;31.37;;;29.77;;
9254;SDS011;4663;49.120;9.730;2023-02-27T14:08:46;36.37;;;33.57;;
9254;SDS011;4663;49.120;9.730;2023-02-27T14:16:11;23.23;;;22.17;;
9254;SDS011;4663;49.120;9.730;2023-02-27T14:18:57;17.63;;;16.73;;
9254;SDS011;4663;49.120;9.730;2023-02-27T14:24:55;17.83;;;16.87;;
9254;SDS011;4663;49.120;9.730;2023-02-27T14:27:25;27.00;;;25.73;;
9254;SDS011;4663;49.120;9.730;2023-02-27T14:29:55;30.07;;;28.53;;
9254;SDS011;4663;49.120;9.730;2023-02-27T14:32:23;28.10;;;26.73;;
9254;SDS011;4663;49.120;9.730;2023-02-27T14:34:51;27.73;;;26.20;;
9254;SDS011;4663;49.120;9.730;2023-02-27T14:37:19;28.80;;;27.37;;
9254;SDS011;4663;49.120;9.730;2023-02-27T14:39:49;32.97;;;31.33;;
9254;SDS011;4663;49.120;9.730;2023-02-27T14:45:00;29.73;;;28.23;;
9254;SDS011;4663;49.120;9.730;2023-02-27T14:47:35;30.63;;;29.13;;
9254;SDS011;4663;49.120;9.730;2023-02-27T14:50:02;30.80;;;29.20;;
9254;SDS011;4663;49.120;9.730;2023-02-27T14:52:30;32.13;;;30.53;;
9254;SDS011;4663;49.120;9.730;2023-02-27T14:55:07;32.40;;;30.80;;
9254;SDS011;4663;49.120;9.730;2023-02-27T14:57:39;31.30;;;29.13;;
9254;SDS011;4663;49.120;9.730;2023-02-27T15:03:22;26.57;;;25.20;;
9254;SDS011;4663;49.120;9.730;2023-02-27T15:05:52;27.43;;;26.07;;
9254;SDS011;4663;49.120;9.730;2023-02-27T15:08:25;24.60;;;23.37;;
9254;SDS011;4663;49.120;9.730;2023-02-27T15:11:02;20.27;;;19.23;;
9254;SDS011;4663;49.120;9.730;2023-02-27T15:18:51;17.43;;;16.50;;
9254;SDS011;4663;49.120;9.730;2023-02-27T15:21:19;16.63;;;15.70;;
9254;SDS011;4663;49.120;9.730;2023-02-27T15:23:53;20.70;;;19.50;;
9254;SDS011;4663;49.120;9.730;2023-02-27T15:26:27;19.17;;;18.07;;
9254;SDS011;4663;49.120;9.730;2023-02-27T15:28:54;17.13;;;16.30;;
9254;SDS011;4663;49.120;9.730;2023-02-27T15:31:23;15.77;;;14.90;;
9254;SDS011;4663;49.120;9.730;2023-02-27T15:33:54;17.33;;;16.17;;
9254;SDS011;4663;49.120;9.730;2023-02-27T15:36:22;13.83;;;13.13;;
9254;SDS011;4663;49.120;9.730;2023-02-27T15:41:39;12.27;;;11.67;;
9254;SDS011;4663;49.120;9.730;2023-02-27T15:44:11;14.03;;;13.23;;
9254;SDS011;4663;49.120;9.730;2023-02-27T15:46:38;12.73;;;12.03;;
9254;SDS011;4663;49.120;9.730;2023-02-27T15:49:04;14.17;;;13.37;;
9254;SDS011;4663;49.120;9.730;2023-02-27T15:51:29;15.60;;;14.73;;
9254;SDS011;4663;49.120;9.730;2023-02-27T15:53:57;15.23;;;14.47;;
9254;SDS011;4663;49.120;9.730;2023-02-27T15:56:30;19.27;;;18.33;;
9254;SDS011;4663;49.120;9.730;2023-02-27T15:58:57;18.60;;;17.60;;
9254;SDS011;4663;49.120;9.730;2023-02-27T16:01:25;20.53;;;19.53;;
9254;SDS011;4663;49.120;9.730;2023-02-27T16:03:54;20.80;;;19.57;;
9254;SDS011;4663;49.120;9.730;2023-02-27T16:06:33;18.73;;;17.73;;
9254;SDS011;4663;49.120;9.730;2023-02-27T16:12:38;19.57;;;18.13;;
9254;SDS011;4663;49.120;9.730;2023-02-27T16:14:45;14.10;;;13.37;;
9254;SDS011;4663;49.120;9.730;2023-02-27T16:17:30;14.63;;;13.70;;
9254;SDS011;4663;49.120;9.730;2023-02-27T16:19:58;14.33;;;13.53;;
9254;SDS011;4663;49.120;9.730;2023-02-27T16:22:25;15.53;;;14.50;;
9254;SDS011;4663;49.120;9.730;2023-02-27T16:24:52;15.20;;;14.27;;
9254;SDS011;4663;49.120;9.730;2023-02-27T16:27:24;14.20;;;13.47;;
9254;SDS011;4663;49.120;9.730;2023-02-27T16:29:52;14.53;;;13.83;;
9254;SDS011;4663;49.120;9.730;2023-02-27T16:34:46;14.20;;;13.40;;
9254;SDS011;4663;49.120;9.730;2023-02-27T16:37:16;12.43;;;11.80;;
9254;SDS011;4663;49.120;9.730;2023-02-27T16:39:45;12.87;;;12.17;;
9254;SDS011;4663;49.120;9.730;2023-02-27T16:42:10;12.77;;;12.07;;
9254;SDS011;4663;49.120;9.730;2023-02-27T16:44:36;12.73;;;11.93;;
9254;SDS011;4663;49.120;9.730;2023-02-27T16:47:01;13.07;;;12.37;;
9254;SDS011;4663;49.120;9.730;2023-02-27T16:49:27;12.60;;;11.90;;
9254;SDS011;4663;49.120;9.730;2023-02-27T16:51:54;11.93;;;11.33;;
9254;SDS011;4663;49.120;9.730;2023-02-27T16:54:20;12.87;;;12.07;;
9254;SDS011;4663;49.120;9.730;2023-02-27T16:56:46;12.37;;;11.67;;
9254;SDS011;4663;49.120;9.730;2023-02-27T16:59:25;13.93;;;13.23;;
9254;SDS011;4663;49.120;9.730;2023-02-27T17:01:53;14.40;;;13.57;;
9254;SDS011;4663;49.120;9.730;2023-02-27T17:04:20;13.47;;;12.77;;
9254;SDS011;4663;49.120;9.730;2023-02-27T17:06:45;12.97;;;12.27;;
9254;SDS011;4663;49.120;9.730;2023-02-27T17:09:11;13.97;;;13.17;;
9254;SDS011;4663;49.120;9.730;2023-02-27T17:11:36;14.03;;;13.23;;
9254;SDS011;4663;49.120;9.730;2023-02-27T17:14:02;14.50;;;13.70;;
9254;SDS011;4663;49.120;9.730;2023-02-27T17:16:27;13.03;;;12.13;;
9254;SDS011;4663;49.120;9.730;2023-02-27T17:18:53;14.93;;;14.03;;
9254;SDS011;4663;49.120;9.730;2023-02-27T17:21:18;13.77;;;13.00;;
9254;SDS011;4663;49.120;9.730;2023-02-27T17:23:44;13.50;;;12.67;;
9254;SDS011;4663;49.120;9.730;2023-02-27T17:26:10;12.37;;;11.73;;
9254;SDS011;4663;49.120;9.730;2023-02-27T17:28:36;12.73;;;12.13;;
9254;SDS011;4663;49.120;9.730;2023-02-27T17:31:06;12.47;;;11.80;;
9254;SDS011;4663;49.120;9.730;2023-02-27T17:33:35;13.73;;;13.03;;
9254;SDS011;4663;49.120;9.730;2023-02-27T17:36:01;13.20;;;12.60;;
9254;SDS011;4663;49.120;9.730;2023-02-27T17:38:28;11.97;;;11.30;;
9254;SDS011;4663;49.120;9.730;2023-02-27T17:40:53;12.43;;;11.73;;
9254;SDS011;4663;49.120;9.730;2023-02-27T17:43:18;12.67;;;11.87;;
9254;SDS011;4663;49.120;9.730;2023-02-27T17:45:44;12.30;;;11.63;;
9254;SDS011;4663;49.120;9.730;2023-02-27T17:48:09;13.30;;;12.60;;
9254;SDS011;4663;49.120;9.730;2023-02-27T17:50:34;12.63;;;11.93;;
9254;SDS011;4663;49.120;9.730;2023-02-27T17:53:00;12.30;;;11.60;;
9254;SDS011;4663;49.120;9.730;2023-02-27T17:55:25;14.27;;;13.50;;
9254;SDS011;4663;49.120;9.730;2023-02-27T17:57:51;18.10;;;16.73;;
9254;SDS011;4663;49.120;9.730;2023-02-27T18:00:16;18.93;;;18.00;;
9254;SDS011;4663;49.120;9.730;2023-02-27T18:02:43;16.80;;;16.00;;
9254;SDS011;4663;49.120;9.730;2023-02-27T18:05:09;15.87;;;15.07;;
9254;SDS011;4663;49.120;9.730;2023-02-27T18:07:34;16.67;;;15.73;;
9254;SDS011;4663;49.120;9.730;2023-02-27T18:09:59;16.27;;;15.27;;
9254;SDS011;4663;49.120;9.730;2023-02-27T18:12:25;18.50;;;17.60;;
9254;SDS011;4663;49.120;9.730;2023-02-27T18:14:50;19.30;;;18.23;;
9254;SDS011;4663;49.120;9.730;2023-02-27T18:17:16;21.30;;;20.27;;
9254;SDS011;4663;49.120;9.730;2023-02-27T18:19:41;23.53;;;22.33;;
9254;SDS011;4663;49.120;9.730;2023-02-27T18:22:08;23.13;;;21.97;;
9254;SDS011;4663;49.120;9.730;2023-02-27T18:24:35;20.83;;;19.73;;
9254;SDS011;4663;49.120;9.730;2023-02-27T18:27:01;19.80;;;18.80;;
9254;SDS011;4663;49.120;9.730;2023-02-27T18:29:27;19.27;;;17.67;;
9254;SDS011;4663;49.120;9.730;2023-02-27T18:31:52;16.80;;;15.70;;
9254;SDS011;4663;49.120;9.730;2023-02-27T18:34:19;14.73;;;13.77;;
9254;SDS011;4663;49.120;9.730;2023-02-27T18:36:45;16.03;;;15.13;;
9254;SDS011;4663;49.120;9.730;2023-02-27T18:39:11;17.60;;;16.50;;
9254;SDS011;4663;49.120;9.730;2023-02-27T18:41:37;22.47;;;21.30;;
9254;SDS011;4663;49.120;9.730;2023-02-27T18:44:03;25.33;;;24.10;;
9254;SDS011;4663;49.120;9.730;2023-02-27T18:46:29;24.83;;;23.63;;
9254;SDS011;4663;49.120;9.730;2023-02-27T18:48:56;28.23;;;26.70;;
9254;SDS011;4663;49.120;9.730;2023-02-27T18:51:21;28.50;;;27.13;;
9254;SDS011;4663;49.120;9.730;2023-02-27T18:53:47;30.87;;;29.23;;
9254;SDS011;4663;49.120;9.730;2023-02-27T18:56:14;30.87;;;29.33;;
9254;SDS011;4663;49.120;9.730;2023-02-27T18:58:41;31.77;;;30.20;;
9254;SDS011;4663;49.120;9.730;2023-02-27T19:01:07;31.80;;;30.13;;
9254;SDS011;4663;49.120;9.730;2023-02-27T19:03:42;29.87;;;28.33;;
9254;SDS011;4663;49.120;9.730;2023-02-27T19:06:07;27.93;;;26.53;;
9254;SDS011;4663;49.120;9.730;2023-02-27T19:08:33;31.43;;;29.87;;
9254;SDS011;4663;49.120;9.730;2023-02-27T19:10:58;31.87;;;30.30;;
9254;SDS011;4663;49.120;9.730;2023-02-27T19:13:24;34.53;;;32.87;;
9254;SDS011;4663;49.120;9.730;2023-02-27T19:15:50;32.47;;;30.87;;
9254;SDS011;4663;49.120;9.730;2023-02-27T19:18:16;33.03;;;31.37;;
9254;SDS011;4663;49.120;9.730;2023-02-27T19:20:41;33.67;;;31.97;;
9254;SDS011;4663;49.120;9.730;2023-02-27T19:23:07;32.40;;;30.83;;
9254;SDS011;4663;49.120;9.730;2023-02-27T19:25:32;30.13;;;28.60;;
9254;SDS011;4663;49.120;9.730;2023-02-27T19:27:57;30.77;;;29.03;;
9254;SDS011;4663;49.120;9.730;2023-02-27T19:30:24;31.10;;;29.47;;
9254;SDS011;4663;49.120;9.730;2023-02-27T19:32:50;29.57;;;28.10;;
9254;SDS011;4663;49.120;9.730;2023-02-27T19:35:17;28.30;;;26.73;;
9254;SDS011;4663;49.120;9.730;2023-02-27T19:37:43;28.00;;;26.37;;
9254;SDS011;4663;49.120;9.730;2023-02-27T19:40:17;28.47;;;26.90;;
9254;SDS011;4663;49.120;9.730;2023-02-27T19:42:43;29.40;;;27.83;;
9254;SDS011;4663;49.120;9.730;2023-02-27T19:45:08;28.37;;;26.77;;
9254;SDS011;4663;49.120;9.730;2023-02-27T19:47:34;27.47;;;25.97;;
9254;SDS011;4663;49.120;9.730;2023-02-27T19:50:00;28.43;;;26.87;;
9254;SDS011;4663;49.120;9.730;2023-02-27T19:52:25;26.80;;;25.33;;
9254;SDS011;4663;49.120;9.730;2023-02-27T19:54:51;25.00;;;23.70;;
9254;SDS011;4663;49.120;9.730;2023-02-27T19:57:16;22.77;;;21.50;;
9254;SDS011;4663;49.120;9.730;2023-02-27T19:59:42;22.30;;;20.93;;
9254;SDS011;4663;49.120;9.730;2023-02-27T20:02:09;20.90;;;19.80;;
9254;SDS011;4663;49.120;9.730;2023-02-27T20:04:35;17.70;;;16.73;;
9254;SDS011;4663;49.120;9.730;2023-02-27T20:07:00;16.23;;;15.30;;
9254;SDS011;4663;49.120;9.730;2023-02-27T20:09:26;16.90;;;16.00;;
9254;SDS011;4663;49.120;9.730;2023-02-27T20:11:52;13.77;;;12.97;;
9254;SDS011;4663;49.120;9.730;2023-02-27T20:14:21;14.67;;;13.87;;
9254;SDS011;4663;49.120;9.730;2023-02-27T20:16:47;15.20;;;14.20;;
9254;SDS011;4663;49.120;9.730;2023-02-27T20:19:13;16.87;;;15.87;;
9254;SDS011;4663;49.120;9.730;2023-02-27T20:21:41;15.47;;;14.67;;
9254;SDS011;4663;49.120;9.730;2023-02-27T20:24:07;14.93;;;14.13;;
9254;SDS011;4663;49.120;9.730;2023-02-27T20:26:36;14.87;;;14.07;;
9254;SDS011;4663;49.120;9.730;2023-02-27T20:29:05;14.13;;;13.33;;
9254;SDS011;4663;49.120;9.730;2023-02-27T20:31:36;15.37;;;14.57;;
9254;SDS011;4663;49.120;9.730;2023-02-27T20:34:02;16.10;;;15.10;;
9254;SDS011;4663;49.120;9.730;2023-02-27T20:36:30;15.87;;;15.07;;
9254;SDS011;4663;49.120;9.730;2023-02-27T20:38:56;14.33;;;13.53;;
9254;SDS011;4663;49.120;9.730;2023-02-27T20:41:22;14.17;;;13.37;;
9254;SDS011;4663;49.120;9.730;2023-02-27T20:43:49;14.27;;;13.47;;
9254;SDS011;4663;49.120;9.730;2023-02-27T20:46:20;14.50;;;13.70;;
9254;SDS011;4663;49.120;9.730;2023-02-27T20:48:48;16.93;;;15.93;;
9254;SDS011;4663;49.120;9.730;2023-02-27T20:51:15;16.73;;;15.83;;
9254;SDS011;4663;49.120;9.730;2023-02-27T20:53:46;16.47;;;15.53;;
9254;SDS011;4663;49.120;9.730;2023-02-27T20:56:14;16.87;;;15.90;;
9254;SDS011;4663;49.120;9.730;2023-02-27T20:58:46;17.43;;;16.43;;
9254;SDS011;4663;49.120;9.730;2023-02-27T21:01:12;17.90;;;16.90;;
9254;SDS011;4663;49.120;9.730;2023-02-27T21:03:40;17.37;;;16.47;;
9254;SDS011;4663;49.120;9.730;2023-02-27T21:06:07;16.90;;;16.00;;
9254;SDS011;4663;49.120;9.730;2023-02-27T21:08:34;17.77;;;16.77;;
9254;SDS011;4663;49.120;9.730;2023-02-27T21:11:14;18.27;;;17.33;;
9254;SDS011;4663;49.120;9.730;2023-02-27T21:13:41;17.67;;;16.77;;
9254;SDS011;4663;49.120;9.730;2023-02-27T21:16:08;18.80;;;17.80;;
9254;SDS011;4663;49.120;9.730;2023-02-27T21:18:35;16.90;;;16.00;;
9254;SDS011;4663;49.120;9.730;2023-02-27T21:21:10;17.00;;;15.97;;
9254;SDS011;4663;49.120;9.730;2023-02-27T21:23:40;19.37;;;18.33;;
9254;SDS011;4663;49.120;9.730;2023-02-27T21:26:09;18.43;;;17.30;;
9254;SDS011;4663;49.120;9.730;2023-02-27T21:28:40;17.93;;;16.97;;
9254;SDS011;4663;49.120;9.730;2023-02-27T21:31:12;17.70;;;16.70;;
9254;SDS011;4663;49.120;9.730;2023-02-27T21:33:39;18.33;;;17.23;;
9254;SDS011;4663;49.120;9.730;2023-02-27T21:36:05;17.87;;;16.87;;
9254;SDS011;4663;49.120;9.730;2023-02-27T21:38:31;19.13;;;18.10;;
9254;SDS011;4663;49.120;9.730;2023-02-27T21:40:56;17.57;;;16.57;;
9254;SDS011;4663;49.120;9.730;2023-02-27T21:43:22;18.23;;;17.20;;
9254;SDS011;4663;49.120;9.730;2023-02-27T21:45:48;17.87;;;16.87;;
9254;SDS011;4663;49.120;9.730;2023-02-27T21:48:15;18.63;;;17.63;;
9254;SDS011;4663;49.120;9.730;2023-02-27T21:50:41;18.87;;;17.63;;
9254;SDS011;4663;49.120;9.730;2023-02-27T21:53:07;17.33;;;16.43;;
9254;SDS011;4663;49.120;9.730;2023-02-27T21:55:32;17.67;;;16.67;;
9254;SDS011;4663;49.120;9.730;2023-02-27T21:57:58;17.83;;;16.83;;
9254;SDS011;4663;49.120;9.730;2023-02-27T22:00:23;17.93;;;16.87;;
9254;SDS011;4663;49.120;9.730;2023-02-27T22:02:51;19.37;;;18.20;;
9254;SDS011;4663;49.120;9.730;2023-02-27T22:05:17;18.60;;;17.57;;
9254;SDS011;4663;49.120;9.730;2023-02-27T22:07:43;20.33;;;19.27;;
9254;SDS011;4663;49.120;9.730;2023-02-27T22:10:09;20.50;;;19.30;;
9254;SDS011;4663;49.120;9.730;2023-02-27T22:12:35;21.33;;;20.13;;
9254;SDS011;4663;49.120;9.730;2023-02-27T22:15:00;22.53;;;21.27;;
9254;SDS011;4663;49.120;9.730;2023-02-27T22:17:26;24.40;;;23.10;;
9254;SDS011;4663;49.120;9.730;2023-02-27T22:19:51;25.50;;;24.10;;
9254;SDS011;4663;49.120;9.730;2023-02-27T22:22:17;23.87;;;22.60;;
9254;SDS011;4663;49.120;9.730;2023-02-27T22:24:42;23.07;;;21.80;;
9254;SDS011;4663;49.120;9.730;2023-02-27T22:27:08;22.70;;;21.53;;
9254;SDS011;4663;49.120;9.730;2023-02-27T22:29:33;24.13;;;22.70;;
9254;SDS011;4663;49.120;9.730;2023-02-27T22:31:59;22.70;;;21.50;;
9254;SDS011;4663;49.120;9.730;2023-02-27T22:34:24;21.90;;;20.63;;
9254;SDS011;4663;49.120;9.730;2023-02-27T22:36:49;22.37;;;21.17;;
9254;SDS011;4663;49.120;9.730;2023-02-27T22:39:16;22.47;;;21.20;;
9254;SDS011;4663;49.120;9.730;2023-02-27T22:41:42;22.57;;;21.20;;
9254;SDS011;4663;49.120;9.730;2023-02-27T22:44:07;22.00;;;20.80;;
9254;SDS011;4663;49.120;9.730;2023-02-27T22:46:37;22.73;;;21.50;;
9254;SDS011;4663;49.120;9.730;2023-02-27T22:49:08;22.27;;;21.00;;
9254;SDS011;4663;49.120;9.730;2023-02-27T22:51:36;23.00;;;21.57;;
9254;SDS011;4663;49.120;9.730;2023-02-27T22:54:02;21.70;;;20.53;;
9254;SDS011;4663;49.120;9.730;2023-02-27T22:56:29;22.17;;;20.90;;
9254;SDS011;4663;49.120;9.730;2023-02-27T22:58:56;21.57;;;20.37;;
9254;SDS011;4663;49.120;9.730;2023-02-27T23:01:22;20.87;;;19.67;;
9254;SDS011;4663;49.120;9.730;2023-02-27T23:03:50;20.60;;;19.40;;
9254;SDS011;4663;49.120;9.730;2023-02-27T23:06:21;21.57;;;20.47;;
9254;SDS011;4663;49.120;9.730;2023-02-27T23:08:48;21.60;;;20.50;;